sensor_id;sensor_type;location;lat;lon;timestamp;P1;durP1;ratioP1;P2;durP2;ratioP2
38083;SDS011;23894;51.466;7.444;2022-11-20T00:00:14;43.08;;;29.25;;
38083;SDS011;23894;51.466;7.444;2022-11-20T00:02:16;41.92;;;28.30;;
38083;SDS011;23894;51.466;7.444;2022-11-20T00:04:16;39.58;;;27.80;;
38083;SDS011;23894;51.466;7.444;2022-11-20T00:06:17;37.40;;;27.30;;
38083;SDS011;23894;51.466;7.444;2022-11-20T00:08:19;36.08;;;26.75;;
38083;SDS011;23894;51.466;7.444;2022-11-20T00:10:20;37.70;;;26.45;;
38083;SDS011;23894;51.466;7.444;2022-11-20T00:12:20;39.88;;;28.27;;
38083;SDS011;23894;51.466;7.444;2022-11-20T00:14:21;64.78;;;37.53;;
38083;SDS011;23894;51.466;7.444;2022-11-20T00:16:22;48.85;;;32.53;;
38083;SDS011;23894;51.466;7.444;2022-11-20T00:18:24;48.72;;;31.85;;
38083;SDS011;23894;51.466;7.444;2022-11-20T00:20:25;44.25;;;30.40;;
38083;SDS011;23894;51.466;7.444;2022-11-20T00:22:26;54.08;;;32.53;;
38083;SDS011;23894;51.466;7.444;2022-11-20T00:24:26;47.10;;;31.50;;
38083;SDS011;23894;51.466;7.444;2022-11-20T00:26:27;42.53;;;28.63;;
38083;SDS011;23894;51.466;7.444;2022-11-20T00:30:28;39.17;;;25.77;;
38083;SDS011;23894;51.466;7.444;2022-11-20T00:32:29;43.72;;;28.02;;
38083;SDS011;23894;51.466;7.444;2022-11-20T00:34:30;40.10;;;28.27;;
38083;SDS011;23894;51.466;7.444;2022-11-20T00:36:32;37.92;;;26.40;;
38083;SDS011;23894;51.466;7.444;2022-11-20T00:38:33;38.05;;;26.67;;
38083;SDS011;23894;51.466;7.444;2022-11-20T00:40:34;37.65;;;28.38;;
38083;SDS011;23894;51.466;7.444;2022-11-20T00:42:35;40.35;;;27.05;;
38083;SDS011;23894;51.466;7.444;2022-11-20T00:44:35;38.97;;;25.38;;
38083;SDS011;23894;51.466;7.444;2022-11-20T00:46:36;38.72;;;26.88;;
38083;SDS011;23894;51.466;7.444;2022-11-20T00:48:36;38.05;;;26.42;;
38083;SDS011;23894;51.466;7.444;2022-11-20T00:50:37;36.00;;;25.60;;
38083;SDS011;23894;51.466;7.444;2022-11-20T00:52:38;36.33;;;26.05;;
38083;SDS011;23894;51.466;7.444;2022-11-20T00:54:39;38.38;;;26.20;;
38083;SDS011;23894;51.466;7.444;2022-11-20T00:56:40;36.45;;;25.98;;
38083;SDS011;23894;51.466;7.444;2022-11-20T00:58:41;33.80;;;24.45;;
38083;SDS011;23894;51.466;7.444;2022-11-20T01:00:43;36.10;;;25.92;;
38083;SDS011;23894;51.466;7.444;2022-11-20T01:02:44;61.35;;;32.83;;
38083;SDS011;23894;51.466;7.444;2022-11-20T01:04:44;45.00;;;29.58;;
38083;SDS011;23894;51.466;7.444;2022-11-20T01:06:45;44.13;;;28.52;;
38083;SDS011;23894;51.466;7.444;2022-11-20T01:08:46;41.70;;;28.23;;
38083;SDS011;23894;51.466;7.444;2022-11-20T01:10:47;44.47;;;29.23;;
38083;SDS011;23894;51.466;7.444;2022-11-20T01:12:47;42.65;;;28.05;;
38083;SDS011;23894;51.466;7.444;2022-11-20T01:15:08;46.87;;;29.00;;
38083;SDS011;23894;51.466;7.444;2022-11-20T01:17:09;49.22;;;29.30;;
38083;SDS011;23894;51.466;7.444;2022-11-20T01:19:11;49.35;;;30.90;;
38083;SDS011;23894;51.466;7.444;2022-11-20T01:21:18;49.20;;;30.02;;
38083;SDS011;23894;51.466;7.444;2022-11-20T01:23:20;47.55;;;29.73;;
38083;SDS011;23894;51.466;7.444;2022-11-20T01:25:21;47.25;;;28.30;;
38083;SDS011;23894;51.466;7.444;2022-11-20T01:27:21;40.08;;;28.27;;
38083;SDS011;23894;51.466;7.444;2022-11-20T01:29:23;40.53;;;26.52;;
38083;SDS011;23894;51.466;7.444;2022-11-20T01:31:24;36.85;;;25.73;;
38083;SDS011;23894;51.466;7.444;2022-11-20T01:33:25;36.50;;;26.50;;
38083;SDS011;23894;51.466;7.444;2022-11-20T01:35:26;38.55;;;26.75;;
38083;SDS011;23894;51.466;7.444;2022-11-20T01:37:27;40.28;;;26.73;;
38083;SDS011;23894;51.466;7.444;2022-11-20T01:39:27;35.78;;;24.83;;
38083;SDS011;23894;51.466;7.444;2022-11-20T01:41:30;39.58;;;27.42;;
38083;SDS011;23894;51.466;7.444;2022-11-20T01:43:50;36.35;;;26.50;;
38083;SDS011;23894;51.466;7.444;2022-11-20T01:48:27;34.75;;;24.58;;
38083;SDS011;23894;51.466;7.444;2022-11-20T01:50:31;35.67;;;26.10;;
38083;SDS011;23894;51.466;7.444;2022-11-20T01:52:37;33.22;;;25.23;;
38083;SDS011;23894;51.466;7.444;2022-11-20T01:54:47;35.28;;;25.33;;
38083;SDS011;23894;51.466;7.444;2022-11-20T01:56:53;35.40;;;25.25;;
38083;SDS011;23894;51.466;7.444;2022-11-20T01:58:58;33.55;;;23.88;;
38083;SDS011;23894;51.466;7.444;2022-11-20T02:01:02;35.47;;;24.58;;
38083;SDS011;23894;51.466;7.444;2022-11-20T02:03:11;37.35;;;25.75;;
38083;SDS011;23894;51.466;7.444;2022-11-20T02:05:18;35.42;;;26.52;;
38083;SDS011;23894;51.466;7.444;2022-11-20T02:07:23;36.25;;;25.90;;
38083;SDS011;23894;51.466;7.444;2022-11-20T02:09:24;34.70;;;25.77;;
38083;SDS011;23894;51.466;7.444;2022-11-20T02:11:25;33.80;;;24.80;;
38083;SDS011;23894;51.466;7.444;2022-11-20T02:13:25;33.35;;;23.23;;
38083;SDS011;23894;51.466;7.444;2022-11-20T02:15:44;33.95;;;23.60;;
38083;SDS011;23894;51.466;7.444;2022-11-20T02:17:45;33.85;;;24.48;;
38083;SDS011;23894;51.466;7.444;2022-11-20T02:19:46;36.45;;;25.60;;
38083;SDS011;23894;51.466;7.444;2022-11-20T02:22:05;34.20;;;24.23;;
38083;SDS011;23894;51.466;7.444;2022-11-20T02:26:21;33.53;;;23.55;;
38083;SDS011;23894;51.466;7.444;2022-11-20T02:28:23;35.20;;;25.10;;
38083;SDS011;23894;51.466;7.444;2022-11-20T02:30:24;33.55;;;24.55;;
38083;SDS011;23894;51.466;7.444;2022-11-20T02:32:26;34.80;;;24.58;;
38083;SDS011;23894;51.466;7.444;2022-11-20T02:34:28;34.88;;;25.17;;
38083;SDS011;23894;51.466;7.444;2022-11-20T02:36:29;33.00;;;24.70;;
38083;SDS011;23894;51.466;7.444;2022-11-20T02:38:31;33.55;;;23.85;;
38083;SDS011;23894;51.466;7.444;2022-11-20T02:40:32;33.00;;;24.88;;
38083;SDS011;23894;51.466;7.444;2022-11-20T02:42:32;30.58;;;21.70;;
38083;SDS011;23894;51.466;7.444;2022-11-20T02:44:33;32.55;;;23.25;;
38083;SDS011;23894;51.466;7.444;2022-11-20T02:46:34;31.05;;;22.92;;
38083;SDS011;23894;51.466;7.444;2022-11-20T02:48:34;31.77;;;22.58;;
38083;SDS011;23894;51.466;7.444;2022-11-20T02:50:39;32.75;;;23.08;;
38083;SDS011;23894;51.466;7.444;2022-11-20T02:52:40;29.23;;;21.85;;
38083;SDS011;23894;51.466;7.444;2022-11-20T02:54:41;36.03;;;23.88;;
38083;SDS011;23894;51.466;7.444;2022-11-20T02:56:41;32.70;;;23.20;;
38083;SDS011;23894;51.466;7.444;2022-11-20T02:58:43;31.25;;;22.83;;
38083;SDS011;23894;51.466;7.444;2022-11-20T03:00:43;30.23;;;21.13;;
38083;SDS011;23894;51.466;7.444;2022-11-20T03:02:44;30.13;;;21.92;;
38083;SDS011;23894;51.466;7.444;2022-11-20T03:04:45;30.15;;;22.33;;
38083;SDS011;23894;51.466;7.444;2022-11-20T03:06:45;32.95;;;23.27;;
38083;SDS011;23894;51.466;7.444;2022-11-20T03:08:46;30.65;;;22.45;;
38083;SDS011;23894;51.466;7.444;2022-11-20T03:10:49;34.53;;;23.08;;
38083;SDS011;23894;51.466;7.444;2022-11-20T03:12:56;33.42;;;24.25;;
38083;SDS011;23894;51.466;7.444;2022-11-20T03:14:56;28.65;;;20.95;;
38083;SDS011;23894;51.466;7.444;2022-11-20T03:16:57;31.08;;;23.48;;
38083;SDS011;23894;51.466;7.444;2022-11-20T03:18:57;31.35;;;21.60;;
38083;SDS011;23894;51.466;7.444;2022-11-20T03:20:58;31.42;;;22.20;;
38083;SDS011;23894;51.466;7.444;2022-11-20T03:22:59;31.85;;;22.70;;
38083;SDS011;23894;51.466;7.444;2022-11-20T03:25:00;31.05;;;22.25;;
38083;SDS011;23894;51.466;7.444;2022-11-20T03:27:00;33.60;;;23.02;;
38083;SDS011;23894;51.466;7.444;2022-11-20T03:29:02;30.42;;;22.80;;
38083;SDS011;23894;51.466;7.444;2022-11-20T03:31:08;31.42;;;23.63;;
38083;SDS011;23894;51.466;7.444;2022-11-20T03:33:09;28.95;;;22.13;;
38083;SDS011;23894;51.466;7.444;2022-11-20T03:35:10;31.02;;;21.95;;
38083;SDS011;23894;51.466;7.444;2022-11-20T03:37:11;28.00;;;21.25;;
38083;SDS011;23894;51.466;7.444;2022-11-20T03:39:11;29.05;;;21.92;;
38083;SDS011;23894;51.466;7.444;2022-11-20T03:41:13;26.30;;;20.15;;
38083;SDS011;23894;51.466;7.444;2022-11-20T03:43:18;31.05;;;22.63;;
38083;SDS011;23894;51.466;7.444;2022-11-20T03:45:19;31.30;;;22.67;;
38083;SDS011;23894;51.466;7.444;2022-11-20T03:47:19;30.13;;;21.23;;
38083;SDS011;23894;51.466;7.444;2022-11-20T03:49:20;29.10;;;21.80;;
38083;SDS011;23894;51.466;7.444;2022-11-20T03:51:21;28.77;;;21.85;;
38083;SDS011;23894;51.466;7.444;2022-11-20T03:53:23;29.83;;;21.70;;
38083;SDS011;23894;51.466;7.444;2022-11-20T03:55:24;29.08;;;22.35;;
38083;SDS011;23894;51.466;7.444;2022-11-20T03:57:24;32.63;;;22.30;;
38083;SDS011;23894;51.466;7.444;2022-11-20T03:59:25;30.30;;;22.88;;
38083;SDS011;23894;51.466;7.444;2022-11-20T04:01:27;31.45;;;21.98;;
38083;SDS011;23894;51.466;7.444;2022-11-20T04:03:29;32.08;;;23.92;;
38083;SDS011;23894;51.466;7.444;2022-11-20T04:05:30;29.52;;;21.88;;
38083;SDS011;23894;51.466;7.444;2022-11-20T04:07:33;30.90;;;21.80;;
38083;SDS011;23894;51.466;7.444;2022-11-20T04:09:34;31.83;;;23.42;;
38083;SDS011;23894;51.466;7.444;2022-11-20T04:11:35;34.78;;;23.67;;
38083;SDS011;23894;51.466;7.444;2022-11-20T04:13:37;32.33;;;23.30;;
38083;SDS011;23894;51.466;7.444;2022-11-20T04:15:38;29.95;;;21.92;;
38083;SDS011;23894;51.466;7.444;2022-11-20T04:17:38;30.98;;;22.58;;
38083;SDS011;23894;51.466;7.444;2022-11-20T04:19:39;30.92;;;22.60;;
38083;SDS011;23894;51.466;7.444;2022-11-20T04:21:39;31.85;;;22.63;;
38083;SDS011;23894;51.466;7.444;2022-11-20T04:23:40;31.77;;;22.08;;
38083;SDS011;23894;51.466;7.444;2022-11-20T04:25:41;32.60;;;23.63;;
38083;SDS011;23894;51.466;7.444;2022-11-20T04:27:41;31.92;;;22.70;;
38083;SDS011;23894;51.466;7.444;2022-11-20T04:29:42;29.45;;;22.17;;
38083;SDS011;23894;51.466;7.444;2022-11-20T04:31:42;30.67;;;22.75;;
38083;SDS011;23894;51.466;7.444;2022-11-20T04:33:43;32.78;;;22.52;;
38083;SDS011;23894;51.466;7.444;2022-11-20T04:35:44;28.70;;;21.70;;
38083;SDS011;23894;51.466;7.444;2022-11-20T04:37:47;30.08;;;22.27;;
38083;SDS011;23894;51.466;7.444;2022-11-20T04:39:51;28.75;;;21.60;;
38083;SDS011;23894;51.466;7.444;2022-11-20T04:41:52;30.00;;;21.58;;
38083;SDS011;23894;51.466;7.444;2022-11-20T04:44:12;31.67;;;22.40;;
38083;SDS011;23894;51.466;7.444;2022-11-20T04:46:13;30.85;;;23.23;;
38083;SDS011;23894;51.466;7.444;2022-11-20T04:48:13;30.85;;;22.42;;
38083;SDS011;23894;51.466;7.444;2022-11-20T04:50:14;31.50;;;22.67;;
38083;SDS011;23894;51.466;7.444;2022-11-20T04:52:15;30.48;;;21.48;;
38083;SDS011;23894;51.466;7.444;2022-11-20T04:54:15;28.83;;;21.85;;
38083;SDS011;23894;51.466;7.444;2022-11-20T04:56:16;27.60;;;21.17;;
38083;SDS011;23894;51.466;7.444;2022-11-20T04:58:17;31.52;;;22.42;;
38083;SDS011;23894;51.466;7.444;2022-11-20T05:00:17;27.67;;;21.17;;
38083;SDS011;23894;51.466;7.444;2022-11-20T05:02:18;28.70;;;21.45;;
38083;SDS011;23894;51.466;7.444;2022-11-20T05:04:18;33.05;;;22.98;;
38083;SDS011;23894;51.466;7.444;2022-11-20T05:06:20;33.25;;;22.38;;
38083;SDS011;23894;51.466;7.444;2022-11-20T05:08:21;30.55;;;21.38;;
38083;SDS011;23894;51.466;7.444;2022-11-20T05:10:21;29.40;;;22.35;;
38083;SDS011;23894;51.466;7.444;2022-11-20T05:12:22;29.33;;;22.48;;
38083;SDS011;23894;51.466;7.444;2022-11-20T05:14:22;29.77;;;21.52;;
38083;SDS011;23894;51.466;7.444;2022-11-20T05:16:23;30.65;;;21.90;;
38083;SDS011;23894;51.466;7.444;2022-11-20T05:18:24;31.73;;;21.70;;
38083;SDS011;23894;51.466;7.444;2022-11-20T05:20:25;29.25;;;21.65;;
38083;SDS011;23894;51.466;7.444;2022-11-20T05:22:25;28.48;;;22.15;;
38083;SDS011;23894;51.466;7.444;2022-11-20T05:24:26;29.65;;;21.50;;
38083;SDS011;23894;51.466;7.444;2022-11-20T05:26:26;34.10;;;22.02;;
38083;SDS011;23894;51.466;7.444;2022-11-20T05:28:27;27.73;;;21.02;;
38083;SDS011;23894;51.466;7.444;2022-11-20T05:30:29;27.73;;;20.67;;
38083;SDS011;23894;51.466;7.444;2022-11-20T05:32:29;28.10;;;20.30;;
38083;SDS011;23894;51.466;7.444;2022-11-20T05:34:30;28.73;;;21.13;;
38083;SDS011;23894;51.466;7.444;2022-11-20T05:36:31;30.58;;;21.58;;
38083;SDS011;23894;51.466;7.444;2022-11-20T05:38:32;29.80;;;20.48;;
38083;SDS011;23894;51.466;7.444;2022-11-20T05:40:32;28.42;;;21.55;;
38083;SDS011;23894;51.466;7.444;2022-11-20T05:42:33;28.98;;;20.85;;
38083;SDS011;23894;51.466;7.444;2022-11-20T05:44:33;29.83;;;21.58;;
38083;SDS011;23894;51.466;7.444;2022-11-20T05:46:34;29.33;;;22.35;;
38083;SDS011;23894;51.466;7.444;2022-11-20T05:48:35;30.27;;;21.80;;
38083;SDS011;23894;51.466;7.444;2022-11-20T05:50:37;29.98;;;21.27;;
38083;SDS011;23894;51.466;7.444;2022-11-20T05:52:37;28.60;;;20.45;;
38083;SDS011;23894;51.466;7.444;2022-11-20T05:54:38;27.50;;;20.17;;
38083;SDS011;23894;51.466;7.444;2022-11-20T05:56:38;25.40;;;19.17;;
38083;SDS011;23894;51.466;7.444;2022-11-20T05:58:39;27.63;;;20.23;;
38083;SDS011;23894;51.466;7.444;2022-11-20T06:02:41;26.60;;;19.20;;
38083;SDS011;23894;51.466;7.444;2022-11-20T06:04:41;27.70;;;20.45;;
38083;SDS011;23894;51.466;7.444;2022-11-20T06:06:42;28.98;;;21.00;;
38083;SDS011;23894;51.466;7.444;2022-11-20T06:08:43;26.20;;;20.27;;
38083;SDS011;23894;51.466;7.444;2022-11-20T06:10:44;27.98;;;20.15;;
38083;SDS011;23894;51.466;7.444;2022-11-20T06:12:45;32.63;;;22.05;;
38083;SDS011;23894;51.466;7.444;2022-11-20T06:14:45;32.42;;;22.40;;
38083;SDS011;23894;51.466;7.444;2022-11-20T06:16:46;29.10;;;21.52;;
38083;SDS011;23894;51.466;7.444;2022-11-20T06:18:46;29.80;;;20.02;;
38083;SDS011;23894;51.466;7.444;2022-11-20T06:22:48;29.17;;;20.13;;
38083;SDS011;23894;51.466;7.444;2022-11-20T06:24:49;25.08;;;18.77;;
38083;SDS011;23894;51.466;7.444;2022-11-20T06:26:49;28.52;;;20.00;;
38083;SDS011;23894;51.466;7.444;2022-11-20T06:28:50;27.67;;;20.10;;
38083;SDS011;23894;51.466;7.444;2022-11-20T06:30:52;30.15;;;21.15;;
38083;SDS011;23894;51.466;7.444;2022-11-20T06:32:52;28.90;;;20.45;;
38083;SDS011;23894;51.466;7.444;2022-11-20T06:34:53;26.88;;;19.45;;
38083;SDS011;23894;51.466;7.444;2022-11-20T06:36:53;27.63;;;20.55;;
38083;SDS011;23894;51.466;7.444;2022-11-20T06:38:54;28.13;;;20.58;;
38083;SDS011;23894;51.466;7.444;2022-11-20T06:40:55;28.45;;;20.15;;
38083;SDS011;23894;51.466;7.444;2022-11-20T06:44:56;25.87;;;19.47;;
38083;SDS011;23894;51.466;7.444;2022-11-20T06:46:57;29.08;;;20.67;;
38083;SDS011;23894;51.466;7.444;2022-11-20T06:48:57;25.88;;;18.85;;
38083;SDS011;23894;51.466;7.444;2022-11-20T06:50:58;27.48;;;20.20;;
38083;SDS011;23894;51.466;7.444;2022-11-20T06:53:02;29.15;;;20.20;;
38083;SDS011;23894;51.466;7.444;2022-11-20T06:55:05;27.45;;;20.27;;
38083;SDS011;23894;51.466;7.444;2022-11-20T06:57:06;26.98;;;19.30;;
38083;SDS011;23894;51.466;7.444;2022-11-20T06:59:08;24.33;;;18.17;;
38083;SDS011;23894;51.466;7.444;2022-11-20T07:01:09;29.20;;;20.98;;
38083;SDS011;23894;51.466;7.444;2022-11-20T07:03:11;29.65;;;20.77;;
38083;SDS011;23894;51.466;7.444;2022-11-20T07:05:12;26.23;;;19.52;;
38083;SDS011;23894;51.466;7.444;2022-11-20T07:07:13;25.40;;;19.65;;
38083;SDS011;23894;51.466;7.444;2022-11-20T07:09:14;30.77;;;20.17;;
38083;SDS011;23894;51.466;7.444;2022-11-20T07:11:14;29.23;;;19.65;;
38083;SDS011;23894;51.466;7.444;2022-11-20T07:13:15;27.27;;;19.80;;
38083;SDS011;23894;51.466;7.444;2022-11-20T07:15:15;25.60;;;18.60;;
38083;SDS011;23894;51.466;7.444;2022-11-20T07:17:16;25.52;;;19.02;;
38083;SDS011;23894;51.466;7.444;2022-11-20T07:19:17;25.75;;;18.98;;
38083;SDS011;23894;51.466;7.444;2022-11-20T07:21:18;25.42;;;19.10;;
38083;SDS011;23894;51.466;7.444;2022-11-20T07:23:18;24.05;;;18.42;;
38083;SDS011;23894;51.466;7.444;2022-11-20T07:25:19;24.60;;;18.63;;
38083;SDS011;23894;51.466;7.444;2022-11-20T07:27:19;34.42;;;18.80;;
38083;SDS011;23894;51.466;7.444;2022-11-20T07:29:20;25.05;;;19.35;;
38083;SDS011;23894;51.466;7.444;2022-11-20T07:31:20;29.75;;;19.85;;
38083;SDS011;23894;51.466;7.444;2022-11-20T07:33:21;29.08;;;19.80;;
38083;SDS011;23894;51.466;7.444;2022-11-20T07:35:22;26.92;;;19.42;;
38083;SDS011;23894;51.466;7.444;2022-11-20T07:37:26;25.75;;;19.17;;
38083;SDS011;23894;51.466;7.444;2022-11-20T07:39:26;26.83;;;18.65;;
38083;SDS011;23894;51.466;7.444;2022-11-20T07:41:27;23.60;;;17.77;;
38083;SDS011;23894;51.466;7.444;2022-11-20T07:43:27;24.67;;;18.50;;
38083;SDS011;23894;51.466;7.444;2022-11-20T07:45:28;24.65;;;17.67;;
38083;SDS011;23894;51.466;7.444;2022-11-20T07:47:28;24.38;;;16.85;;
38083;SDS011;23894;51.466;7.444;2022-11-20T07:49:35;22.10;;;15.63;;
38083;SDS011;23894;51.466;7.444;2022-11-20T07:51:36;22.60;;;15.95;;
38083;SDS011;23894;51.466;7.444;2022-11-20T07:53:36;23.95;;;16.27;;
38083;SDS011;23894;51.466;7.444;2022-11-20T07:55:37;21.73;;;15.82;;
38083;SDS011;23894;51.466;7.444;2022-11-20T07:57:37;22.45;;;16.73;;
38083;SDS011;23894;51.466;7.444;2022-11-20T07:59:38;24.08;;;16.60;;
38083;SDS011;23894;51.466;7.444;2022-11-20T08:01:39;22.45;;;16.17;;
38083;SDS011;23894;51.466;7.444;2022-11-20T08:05:40;23.07;;;16.17;;
38083;SDS011;23894;51.466;7.444;2022-11-20T08:07:41;23.98;;;16.38;;
38083;SDS011;23894;51.466;7.444;2022-11-20T08:09:43;25.83;;;18.77;;
38083;SDS011;23894;51.466;7.444;2022-11-20T08:11:43;25.17;;;19.20;;
38083;SDS011;23894;51.466;7.444;2022-11-20T08:14:03;25.13;;;18.48;;
38083;SDS011;23894;51.466;7.444;2022-11-20T08:16:14;28.75;;;19.20;;
38083;SDS011;23894;51.466;7.444;2022-11-20T08:18:14;23.00;;;17.90;;
38083;SDS011;23894;51.466;7.444;2022-11-20T08:20:15;24.05;;;18.10;;
38083;SDS011;23894;51.466;7.444;2022-11-20T08:22:16;26.48;;;18.77;;
38083;SDS011;23894;51.466;7.444;2022-11-20T08:24:17;24.55;;;18.33;;
38083;SDS011;23894;51.466;7.444;2022-11-20T08:26:18;25.27;;;19.05;;
38083;SDS011;23894;51.466;7.444;2022-11-20T08:28:20;24.23;;;17.75;;
38083;SDS011;23894;51.466;7.444;2022-11-20T08:30:22;23.65;;;17.30;;
38083;SDS011;23894;51.466;7.444;2022-11-20T08:32:22;23.60;;;17.77;;
38083;SDS011;23894;51.466;7.444;2022-11-20T08:34:23;27.13;;;18.00;;
38083;SDS011;23894;51.466;7.444;2022-11-20T08:36:23;25.00;;;17.85;;
38083;SDS011;23894;51.466;7.444;2022-11-20T08:40:25;22.97;;;17.30;;
38083;SDS011;23894;51.466;7.444;2022-11-20T08:42:25;28.80;;;18.67;;
38083;SDS011;23894;51.466;7.444;2022-11-20T08:44:26;28.80;;;18.85;;
38083;SDS011;23894;51.466;7.444;2022-11-20T08:46:30;23.90;;;18.40;;
38083;SDS011;23894;51.466;7.444;2022-11-20T08:48:39;25.20;;;17.02;;
38083;SDS011;23894;51.466;7.444;2022-11-20T08:50:39;24.88;;;18.13;;
38083;SDS011;23894;51.466;7.444;2022-11-20T08:52:40;24.67;;;18.40;;
38083;SDS011;23894;51.466;7.444;2022-11-20T08:56:41;27.73;;;19.10;;
38083;SDS011;23894;51.466;7.444;2022-11-20T08:58:42;26.83;;;18.75;;
38083;SDS011;23894;51.466;7.444;2022-11-20T09:00:43;24.00;;;19.92;;
38083;SDS011;23894;51.466;7.444;2022-11-20T09:02:43;25.30;;;18.55;;
38083;SDS011;23894;51.466;7.444;2022-11-20T09:04:44;23.60;;;18.23;;
38083;SDS011;23894;51.466;7.444;2022-11-20T09:06:44;26.75;;;20.05;;
38083;SDS011;23894;51.466;7.444;2022-11-20T09:08:45;26.17;;;18.73;;
38083;SDS011;23894;51.466;7.444;2022-11-20T09:10:46;26.52;;;18.58;;
38083;SDS011;23894;51.466;7.444;2022-11-20T09:12:52;26.13;;;18.98;;
38083;SDS011;23894;51.466;7.444;2022-11-20T09:14:53;25.50;;;19.90;;
38083;SDS011;23894;51.466;7.444;2022-11-20T09:16:56;26.23;;;20.00;;
38083;SDS011;23894;51.466;7.444;2022-11-20T09:18:57;28.67;;;20.80;;
38083;SDS011;23894;51.466;7.444;2022-11-20T09:20:58;28.42;;;22.20;;
38083;SDS011;23894;51.466;7.444;2022-11-20T09:22:59;27.88;;;21.65;;
38083;SDS011;23894;51.466;7.444;2022-11-20T09:25:00;29.10;;;21.88;;
38083;SDS011;23894;51.466;7.444;2022-11-20T09:27:01;29.15;;;21.38;;
38083;SDS011;23894;51.466;7.444;2022-11-20T09:29:03;27.38;;;21.17;;
38083;SDS011;23894;51.466;7.444;2022-11-20T09:31:09;28.83;;;21.20;;
38083;SDS011;23894;51.466;7.444;2022-11-20T09:33:19;26.67;;;21.75;;
38083;SDS011;23894;51.466;7.444;2022-11-20T09:35:20;26.13;;;19.17;;
38083;SDS011;23894;51.466;7.444;2022-11-20T09:37:20;23.50;;;17.98;;
38083;SDS011;23894;51.466;7.444;2022-11-20T09:39:22;25.27;;;17.13;;
38083;SDS011;23894;51.466;7.444;2022-11-20T09:43:44;20.50;;;14.15;;
38083;SDS011;23894;51.466;7.444;2022-11-20T09:53:13;25.52;;;16.30;;
38083;SDS011;23894;51.466;7.444;2022-11-20T09:55:23;24.77;;;16.77;;
38083;SDS011;23894;51.466;7.444;2022-11-20T09:57:27;23.85;;;16.92;;
38083;SDS011;23894;51.466;7.444;2022-11-20T10:01:49;27.52;;;19.42;;
38083;SDS011;23894;51.466;7.444;2022-11-20T10:05:54;28.38;;;18.65;;
38083;SDS011;23894;51.466;7.444;2022-11-20T10:08:11;27.90;;;20.85;;
38083;SDS011;23894;51.466;7.444;2022-11-20T10:10:16;28.10;;;19.87;;
38083;SDS011;23894;51.466;7.444;2022-11-20T10:12:43;26.45;;;19.42;;
38083;SDS011;23894;51.466;7.444;2022-11-20T10:15:04;29.25;;;20.30;;
38083;SDS011;23894;51.466;7.444;2022-11-20T10:24:02;27.83;;;20.75;;
38083;SDS011;23894;51.466;7.444;2022-11-20T10:26:31;25.20;;;18.80;;
38083;SDS011;23894;51.466;7.444;2022-11-20T10:29:09;26.80;;;19.60;;
38083;SDS011;23894;51.466;7.444;2022-11-20T10:33:33;21.10;;;15.20;;
38083;SDS011;23894;51.466;7.444;2022-11-20T10:35:44;15.73;;;12.40;;
38083;SDS011;23894;51.466;7.444;2022-11-20T10:37:52;15.07;;;11.05;;
38083;SDS011;23894;51.466;7.444;2022-11-20T10:47:16;16.13;;;12.20;;
38083;SDS011;23894;51.466;7.444;2022-11-20T10:49:18;17.05;;;12.30;;
38083;SDS011;23894;51.466;7.444;2022-11-20T10:53:53;17.08;;;12.30;;
38083;SDS011;23894;51.466;7.444;2022-11-20T10:56:33;16.13;;;11.57;;
38083;SDS011;23894;51.466;7.444;2022-11-20T10:59:01;16.40;;;12.23;;
38083;SDS011;23894;51.466;7.444;2022-11-20T11:01:19;17.40;;;12.57;;
38083;SDS011;23894;51.466;7.444;2022-11-20T11:03:24;18.75;;;13.55;;
38083;SDS011;23894;51.466;7.444;2022-11-20T11:07:29;17.80;;;12.43;;
38083;SDS011;23894;51.466;7.444;2022-11-20T11:09:37;16.75;;;12.80;;
38083;SDS011;23894;51.466;7.444;2022-11-20T11:11:43;17.77;;;13.10;;
38083;SDS011;23894;51.466;7.444;2022-11-20T11:13:44;17.00;;;12.45;;
38083;SDS011;23894;51.466;7.444;2022-11-20T11:15:44;15.90;;;12.32;;
38083;SDS011;23894;51.466;7.444;2022-11-20T11:17:48;19.00;;;13.18;;
38083;SDS011;23894;51.466;7.444;2022-11-20T11:22:09;18.17;;;13.82;;
38083;SDS011;23894;51.466;7.444;2022-11-20T11:24:22;17.77;;;13.35;;
38083;SDS011;23894;51.466;7.444;2022-11-20T11:26:28;20.23;;;14.27;;
38083;SDS011;23894;51.466;7.444;2022-11-20T11:28:29;18.40;;;13.52;;
38083;SDS011;23894;51.466;7.444;2022-11-20T11:32:40;18.55;;;11.70;;
38083;SDS011;23894;51.466;7.444;2022-11-20T11:34:41;17.75;;;13.10;;
38083;SDS011;23894;51.466;7.444;2022-11-20T11:36:42;16.20;;;11.88;;
38083;SDS011;23894;51.466;7.444;2022-11-20T11:38:56;15.10;;;11.25;;
38083;SDS011;23894;51.466;7.444;2022-11-20T11:40:56;15.40;;;11.57;;
38083;SDS011;23894;51.466;7.444;2022-11-20T11:43:05;16.58;;;12.25;;
38083;SDS011;23894;51.466;7.444;2022-11-20T11:45:36;18.20;;;12.73;;
38083;SDS011;23894;51.466;7.444;2022-11-20T11:47:42;16.05;;;12.15;;
38083;SDS011;23894;51.466;7.444;2022-11-20T11:49:46;15.10;;;11.48;;
38083;SDS011;23894;51.466;7.444;2022-11-20T11:54:17;14.52;;;10.50;;
38083;SDS011;23894;51.466;7.444;2022-11-20T11:56:23;14.70;;;11.07;;
38083;SDS011;23894;51.466;7.444;2022-11-20T12:00:45;15.52;;;11.60;;
38083;SDS011;23894;51.466;7.444;2022-11-20T12:03:02;16.35;;;11.52;;
38083;SDS011;23894;51.466;7.444;2022-11-20T12:08:12;17.52;;;13.18;;
38083;SDS011;23894;51.466;7.444;2022-11-20T12:09:48;16.15;;;11.98;;
38083;SDS011;23894;51.466;7.444;2022-11-20T12:11:56;17.60;;;12.82;;
38083;SDS011;23894;51.466;7.444;2022-11-20T12:14:04;15.68;;;12.50;;
38083;SDS011;23894;51.466;7.444;2022-11-20T12:16:36;15.57;;;11.85;;
38083;SDS011;23894;51.466;7.444;2022-11-20T12:18:40;16.25;;;11.93;;
38083;SDS011;23894;51.466;7.444;2022-11-20T12:20:42;17.10;;;12.70;;
38083;SDS011;23894;51.466;7.444;2022-11-20T12:23:02;16.73;;;13.07;;
38083;SDS011;23894;51.466;7.444;2022-11-20T12:25:19;17.50;;;12.02;;
38083;SDS011;23894;51.466;7.444;2022-11-20T12:34:19;16.67;;;12.32;;
38083;SDS011;23894;51.466;7.444;2022-11-20T12:36:51;14.32;;;10.65;;
38083;SDS011;23894;51.466;7.444;2022-11-20T12:47:08;18.27;;;13.30;;
38083;SDS011;23894;51.466;7.444;2022-11-20T12:49:44;16.92;;;12.18;;
38083;SDS011;23894;51.466;7.444;2022-11-20T12:51:56;18.15;;;13.32;;
38083;SDS011;23894;51.466;7.444;2022-11-20T13:03:50;16.73;;;12.15;;
38083;SDS011;23894;51.466;7.444;2022-11-20T13:08:43;16.67;;;13.00;;
38083;SDS011;23894;51.466;7.444;2022-11-20T13:10:39;18.58;;;13.50;;
38083;SDS011;23894;51.466;7.444;2022-11-20T13:12:51;18.13;;;13.35;;
38083;SDS011;23894;51.466;7.444;2022-11-20T13:17:30;19.40;;;14.23;;
38083;SDS011;23894;51.466;7.444;2022-11-20T13:19:38;18.95;;;14.40;;
38083;SDS011;23894;51.466;7.444;2022-11-20T13:21:40;18.50;;;13.20;;
38083;SDS011;23894;51.466;7.444;2022-11-20T13:23:46;18.13;;;13.50;;
38083;SDS011;23894;51.466;7.444;2022-11-20T13:25:47;18.98;;;14.55;;
38083;SDS011;23894;51.466;7.444;2022-11-20T13:27:49;17.00;;;13.43;;
38083;SDS011;23894;51.466;7.444;2022-11-20T13:32:27;20.90;;;14.32;;
38083;SDS011;23894;51.466;7.444;2022-11-20T13:34:32;18.25;;;13.38;;
38083;SDS011;23894;51.466;7.444;2022-11-20T13:36:33;17.85;;;13.20;;
38083;SDS011;23894;51.466;7.444;2022-11-20T13:38:44;18.63;;;13.65;;